Flight Track Log - Related Links

Times and Time Zones

All times are in EDT time to prevent confusion due to time zone crossing. See the SWA525 flight status page for this flight to view local times or setup timezone preferences in your user account.

Time Position Orientation Groundspeed Altitude Reporting Facility
EDT Latitude Longitude Course Direction KTS MPH feet Rate Location/Type
Fri 06:17:11 PM 29.9992 -90.2983 289° West 179 206 1,500  Level Houston Center
Fri 06:17:49 PM 29.9828 -90.3353 243° Southwest 223 257 3,200 2,613 Climbing Houston Center
Fri 06:18:13 PM 29.9636 -90.3367 184° South 250 288 4,200 3,419 Climbing Houston Center
Fri 06:19:15 PM 29.9058 -90.2794 139° Southeast 269 310 8,100 3,339 Climbing Houston Center
Fri 06:20:17 PM 29.8456 -90.2169 138° Southeast 280 322 11,100 3,484 Climbing Houston Center
Fri 06:21:19 PM 29.7569 -90.1239 138° Southeast 326 375 15,300 3,629 Climbing Houston Center
Fri 06:22:21 PM 29.6931 -90.0258 127° Southeast 363 418 18,600 2,952 Climbing Houston Center
Fri 06:23:23 PM 29.6281 -89.9164 124° Southeast 399 459 21,400 2,592 Climbing Houston Center
Fri 06:24:26 PM 29.5600 -89.8053 125° Southeast 423 487 24,000 2,400 Climbing Houston Center
Fri 06:25:28 PM 29.4892 -89.6878 125° Southeast 443 510 26,400 2,565 Climbing Houston Center
Fri 06:26:30 PM 29.4011 -89.5419 125° Southeast 463 533 29,300 2,274 Climbing Houston Center
Fri 06:27:32 PM 29.3500 -89.4036 113° Southeast 473 544 31,100 1,548 Climbing Houston Center
Fri 06:28:34 PM 29.3108 -89.2547 107° East 488 562 32,500 919 Climbing Houston Center
Fri 06:29:36 PM 29.2714 -89.0983 106° East 506 582 33,000 242 Climbing Houston Center
Fri 06:30:38 PM 29.2308 -88.9450 107° East 506 582 33,000 339 Level Houston Center
Fri 06:31:40 PM 29.1819 -88.7606 107° East 507 583 33,700 1,210 Climbing Houston Center
Fri 06:32:42 PM 29.1419 -88.6067 107° East 508 585 35,500 1,694 Climbing Houston Center
Fri 06:33:44 PM 29.1014 -88.4542 107° East 504 580 37,200 1,488 Climbing Houston Center
Fri 06:34:47 PM 29.0597 -88.3019 107° East 503 579 38,600 1,344 Climbing Houston Center
Fri 06:35:49 PM 29.0181 -88.1514 108° East 498 573 40,000 1,016 Climbing Houston Center
Fri 06:36:51 PM 28.9733 -87.9856 107° East 497 572 40,700 484 Climbing Houston Center
Fri 06:37:53 PM 28.9325 -87.8325 107° East 505 581 41,000 145 Climbing Houston Center
Fri 06:38:55 PM 28.8900 -87.6803 108° East 506 582 41,000  Level Houston Center
Fri 06:39:57 PM 28.8378 -87.4981 108° East 506 582 41,000  Level Houston Center
Fri 06:40:59 PM 28.7969 -87.3481 107° East 501 577 41,000  Level Houston Center
Fri 06:41:20 PM 28.7778 -87.2908 111° Southeast 489 563 41,000  Level Jacksonville Center
Fri 06:42:20 PM 28.7408 -87.1472 106° East 489 563 41,000 -50 Level Jacksonville Center
Fri 06:43:20 PM 28.6978 -86.9986 108° East 489 563 40,900  Descending Jacksonville Center
Fri 06:44:20 PM 28.6544 -86.8478 108° East 489 563 41,000 50 Climbing Jacksonville Center
Fri 06:45:20 PM 28.6111 -86.6972 108° East 489 563 41,000  Level Jacksonville Center
Fri 06:46:20 PM 28.5694 -86.5514 108° East 489 563 41,000  Level Jacksonville Center
Fri 06:47:20 PM 28.5256 -86.4033 109° East 495 570 41,000  Level Jacksonville Center
Fri 06:48:20 PM 28.4817 -86.2461 108° East 500 575 41,000  Level Jacksonville Center
Fri 06:49:20 PM 28.4356 -86.0933 109° East 500 575 41,000  Level Jacksonville Center
Fri 06:50:20 PM 28.3931 -85.9506 109° East 500 575 41,000  Level Jacksonville Center
Fri 06:51:20 PM 28.3508 -85.8006 108° East 495 570 41,000  Level Jacksonville Center
Fri 06:52:20 PM 28.3061 -85.6533 109° East 495 570 41,000  Level Jacksonville Center
Fri 06:53:57 PM 28.2367 -85.4208 109° East 490 564 41,000  Level Miami Center
Fri 06:54:57 PM 28.1936 -85.2717 108° East 490 564 41,000  Level Miami Center
Fri 06:55:57 PM 28.1461 -85.1200 110° East 502 578 41,000  Level Miami Center
Fri 06:56:57 PM 28.1006 -84.9711 109° East 502 578 41,000  Level Miami Center
Fri 06:57:57 PM 28.0589 -84.8225 108° East 496 571 41,000  Level Miami Center
Fri 06:58:57 PM 28.0108 -84.6689 109° East 508 585 41,000  Level Miami Center
Fri 06:59:57 PM 27.9575 -84.5031 110° East 503 579 41,000  Level Miami Center
Fri 07:00:57 PM 27.9172 -84.3525 107° East 503 579 41,000  Level Miami Center
Fri 07:01:57 PM 27.9111 -84.1925 92° East 498 573 41,000 -450 Level Miami Center
Fri 07:02:57 PM 27.9044 -84.0350 93° East 503 579 40,100 -1,550 Descending Miami Center
Fri 07:03:57 PM 27.8956 -83.8772 94° East 503 579 37,900 -2,650 Descending Miami Center
Fri 07:04:57 PM 27.8883 -83.7242 93° East 498 573 34,800 -3,150 Descending Miami Center
Fri 07:05:57 PM 27.8808 -83.5711 93° East 498 573 31,600 -2,850 Descending Miami Center
Fri 07:06:57 PM 27.8756 -83.4161 92° East 493 567 29,100 -2,500 Descending Miami Center
Fri 07:07:57 PM 27.8656 -83.2678 94° East 483 556 26,600 -2,400 Descending Miami Center
Fri 07:08:57 PM 27.8592 -83.1311 93° East 469 540 24,300 -1,600 Descending Miami Center
Fri 07:09:57 PM 27.8503 -82.9969 94° East 445 512 23,400 -950 Descending Miami Center
Fri 07:10:57 PM 27.8414 -82.8603 94° East 434 499 22,400 -1,000 Descending Miami Center
Fri 07:11:57 PM 27.8406 -82.7336 90° East 423 487 21,400 -1,000 Descending Miami Center
Fri 07:12:57 PM 27.8228 -82.6014 99° East 418 481 20,400 -950 Descending Miami Center
Fri 07:13:57 PM 27.8422 -82.4781 80° East 405 466 19,500 -1,000 Descending Miami Center
Fri 07:14:57 PM 27.8758 -82.3644 71° East 391 450 18,400 -1,052 Descending Miami Center
Fri 07:16:31 PM 27.9333 -82.1833 70° East 389 448 16,800 -1,054 Descending Orlando TRACON
Fri 07:17:25 PM 27.9667 -82.0833 69° East 378 435 15,800 -1,579 Descending Orlando TRACON
Fri 07:18:25 PM 28.0000 -81.9667 72° East 363 418 13,800 -1,333 Descending Orlando TRACON
Fri 07:19:31 PM 28.0500 -81.8667 60° Northeast 335 386 13,000 -905 Descending Orlando TRACON
Fri 07:20:31 PM 28.1000 -81.7833 56° Northeast 316 364 11,900 -1,250 Descending Orlando TRACON
Fri 07:21:31 PM 28.1333 -81.7000 66° East 307 353 10,500 -1,429 Descending Orlando TRACON
Fri 07:22:37 PM 28.1667 -81.6000 69° East 292 336 8,900 -1,571 Descending Orlando TRACON
Fri 07:23:37 PM 28.1833 -81.5167 77° East 284 327 7,200 -1,000 Descending Orlando TRACON
Fri 07:24:31 PM 28.1833 -81.4333 90° East 265 305 7,000 -810 Descending Orlando TRACON
Fri 07:25:43 PM 28.2000 -81.3500 77° East 222 255 5,500 -1,353 Descending Orlando TRACON
Fri 07:26:44 PM 28.2500 -81.3167 30° Northeast 185 213 4,000 -1,636 Descending Orlando TRACON
Fri 07:27:44 PM 28.3000 -81.3167 360° North 166 191 2,200 -1,200 Descending Orlando TRACON
Fri 07:28:44 PM 28.3333 -81.3167 360° North 152 175 1,600 -632 Descending Orlando TRACON
Fri 07:29:38 PM 28.3667 -81.3167 360° North 128 147 1,000 -700 Descending Orlando TRACON
Fri 07:30:44 PM 28.4167 -81.3167 360° North 133 153 200 -727 Descending Orlando TRACON

Login

Don't have an account? Register now (free) for customized features, flight alerts, and more!